Time;durP1;ratioP1;P1;durP2;ratioP2;P2;SDS_P1;SDS_P2;PMS_P1;PMS_P2;Temp;Humidity;BMP_temperature;BMP_pressure;BME280_temperature;BME280_humidity;BME280_pressure;Samples;Min_cycle;Max_cycle;Signal;HPM_P1;HPM_P2
2022/03/09 00:01:51;;;;;;;;;61.00;46.50;;;;;9.54;40.57;101467.88;5039455;28;45442;-69
2022/03/09 00:04:17;;;;;;;;;58.00;46.75;;;;;9.61;41.23;101472.34;5021317;28;45417;-69
2022/03/09 00:06:43;;;;;;;;;60.75;45.75;;;;;9.61;40.89;101474.06;5051412;28;45557;-69
2022/03/09 00:09:10;;;;;;;;;59.25;43.75;;;;;9.61;40.70;101472.34;5047728;28;45776;-69
2022/03/09 00:11:36;;;;;;;;;65.00;48.50;;;;;9.59;41.23;101471.44;5027812;28;47085;-69
2022/03/09 00:14:03;;;;;;;;;65.75;47.25;;;;;9.54;41.21;101478.31;5043037;28;45462;-71
2022/03/09 00:16:28;;;;;;;;;63.75;49.25;;;;;9.42;41.68;101465.00;5042514;28;45339;-67
2022/03/09 00:19:03;;;;;;;;;66.50;48.25;;;;;9.45;40.90;101463.34;5053152;28;45753;-70
2022/03/09 00:21:29;;;;;;;;;61.25;45.25;;;;;9.51;41.26;101483.47;5028574;28;46525;-71
2022/03/09 00:23:54;;;;;;;;;68.50;48.25;;;;;9.45;41.54;101479.03;5020207;28;45756;-68
2022/03/09 00:26:20;;;;;;;;;65.25;49.00;;;;;9.27;41.29;101456.03;5043034;28;47344;-68
2022/03/09 00:28:45;;;;;;;;;67.25;48.50;;;;;9.37;41.66;101470.13;5045781;28;45494;-69
2022/03/09 00:31:11;;;;;;;;;65.50;48.00;;;;;9.38;41.88;101479.75;5022100;28;46920;-69
2022/03/09 00:33:38;;;;;;;;;62.50;48.00;;;;;9.39;41.76;101481.50;5043325;28;45557;-69
2022/03/09 00:36:04;;;;;;;;;61.75;46.00;;;;;9.40;42.07;101485.03;5025140;28;45855;-67
2022/03/09 00:38:29;;;;;;;;;62.75;47.75;;;;;9.42;42.00;101492.06;5036804;28;45450;-70
2022/03/09 00:41:01;;;;;;;;;61.50;47.25;;;;;9.37;41.44;101469.25;5035719;28;45606;-68
2022/03/09 00:43:27;;;;;;;;;63.25;46.00;;;;;9.13;41.44;101429.66;5041248;28;45426;-69
2022/03/09 00:45:53;;;;;;;;;64.25;47.00;;;;;9.45;41.46;101470.31;5040155;28;45451;-69
2022/03/09 00:48:19;;;;;;;;;59.75;42.75;;;;;9.55;41.33;101487.91;5042516;28;45319;-69
2022/03/09 00:50:46;;;;;;;;;62.25;45.75;;;;;9.62;40.87;101496.75;5057734;28;45648;-69
2022/03/09 00:53:12;;;;;;;;;60.50;45.00;;;;;9.64;41.06;101501.16;5039710;28;45281;-69
2022/03/09 00:55:38;;;;;;;;;61.00;46.00;;;;;9.63;41.48;101502.00;5023690;28;45680;-68
2022/03/09 00:58:04;;;;;;;;;62.00;45.75;;;;;9.65;41.25;101510.75;5040426;28;45478;-68
2022/03/09 01:00:30;;;;;;;;;60.25;45.50;;;;;9.60;41.21;101504.56;5035718;28;45962;-68
2022/03/09 01:02:55;;;;;;;;;63.50;48.25;;;;;9.43;41.57;101491.19;5035827;28;45356;-69
2022/03/09 01:05:21;;;;;;;;;61.00;48.00;;;;;9.55;41.45;101504.47;5052668;28;45432;-69
2022/03/09 01:07:46;;;;;;;;;57.75;46.25;;;;;9.45;41.34;101488.59;5044552;28;46056;-68
2022/03/09 01:10:13;;;;;;;;;62.00;47.50;;;;;9.51;41.99;101507.88;5049169;28;46247;-69
2022/03/09 01:12:39;;;;;;;;;64.75;49.75;;;;;9.48;41.73;101509.56;5044964;28;45494;-67
2022/03/09 01:15:05;;;;;;;;;63.00;48.00;;;;;9.39;41.94;101488.47;5045529;28;45434;-69
2022/03/09 01:17:31;;;;;;;;;67.25;51.25;;;;;9.42;42.01;101494.66;5036324;28;45535;-69
2022/03/09 01:19:57;;;;;;;;;64.75;48.50;;;;;9.46;42.00;101512.16;5038265;28;47078;-68
2022/03/09 01:22:23;;;;;;;;;61.25;46.75;;;;;9.54;41.77;101515.81;5051929;28;45941;-68
2022/03/09 01:24:49;;;;;;;;;60.00;46.75;;;;;9.48;41.65;101499.13;5046711;28;45555;-69
2022/03/09 01:27:15;;;;;;;;;65.75;49.00;;;;;9.62;41.88;101521.19;5052863;28;45407;-68
2022/03/09 01:29:41;;;;;;;;;59.75;47.75;;;;;9.62;41.72;101522.91;5052586;28;45879;-69
2022/03/09 01:32:07;;;;;;;;;61.75;48.00;;;;;9.59;41.76;101512.41;5047955;28;45535;-68
2022/03/09 01:34:36;;;;;;;;;64.25;45.00;;;;;9.51;41.54;101494.81;5058269;28;45486;-68
2022/03/09 01:37:01;;;;;;;;;62.50;48.25;;;;;9.63;41.77;101515.06;5058903;28;45352;-67
2022/03/09 01:39:27;;;;;;;;;61.25;47.75;;;;;9.62;41.60;101518.56;5058196;28;45952;-69
2022/03/09 01:41:53;;;;;;;;;61.25;44.25;;;;;9.63;41.67;101512.47;5056430;28;45469;-69
2022/03/09 01:44:23;;;;;;;;;61.50;46.75;;;;;9.60;41.46;101508.94;5035917;28;45915;-68
2022/03/09 01:46:50;;;;;;;;;58.50;46.00;;;;;9.64;41.72;101506.41;5054863;28;45536;-70
2022/03/09 01:49:16;;;;;;;;;63.50;48.25;;;;;9.66;41.59;101503.81;5054175;28;45529;-69
2022/03/09 01:51:45;;;;;;;;;64.50;48.75;;;;;9.67;41.46;101502.94;5035951;28;45527;-69
2022/03/09 01:54:12;;;;;;;;;61.50;47.00;;;;;9.72;41.83;101506.53;5054308;28;45452;-70
2022/03/09 01:56:38;;;;;;;;;63.50;46.50;;;;;9.70;42.29;101506.47;5055651;28;45508;-70
2022/03/09 01:59:06;;;;;;;;;62.00;45.50;;;;;9.69;42.17;101511.72;5058567;28;45611;-70
2022/03/09 02:01:32;;;;;;;;;57.00;44.50;;;;;9.70;42.33;101501.25;5058481;28;45219;-68
2022/03/09 02:03:58;;;;;;;;;55.50;44.25;;;;;9.71;42.81;101507.41;5057166;28;45485;-68
2022/03/09 02:06:24;;;;;;;;;61.75;45.50;;;;;9.61;43.20;101488.03;5036055;28;45373;-69
2022/03/09 02:11:36;;;;;;;;;55.50;39.50;;;;;9.51;42.99;101457.31;5053970;28;45381;-70
2022/03/09 02:14:03;;;;;;;;;60.00;45.50;;;;;9.74;43.23;101500.47;5054115;28;45945;-70
2022/03/09 02:16:29;;;;;;;;;59.00;43.50;;;;;9.75;43.24;101498.72;5057194;28;45456;-69
2022/03/09 02:18:54;;;;;;;;;63.25;45.50;;;;;9.68;43.36;101495.16;5036050;28;45568;-69
2022/03/09 02:21:22;;;;;;;;;61.75;46.00;;;;;9.64;42.92;101492.44;5044298;28;45623;-68
2022/03/09 02:23:53;;;;;;;;;64.50;47.50;;;;;9.58;43.68;101493.19;5055014;28;45473;-69
2022/03/09 02:26:18;;;;;;;;;60.50;49.00;;;;;9.56;43.76;101494.91;5037825;28;45492;-70
2022/03/09 02:28:48;;;;;;;;;61.25;48.00;;;;;9.46;44.10;101496.47;5059753;28;46718;-67
2022/03/09 02:31:14;;;;;;;;;64.25;49.25;;;;;9.41;43.58;101485.03;5042572;28;45719;-70
2022/03/09 02:33:48;;;;;;;;;66.75;51.00;;;;;9.40;43.98;101495.50;5062229;28;45831;-70
2022/03/09 02:36:14;;;;;;;;;60.00;49.00;;;;;9.38;44.04;101498.06;5061935;28;45377;-69
2022/03/09 02:38:39;;;;;;;;;65.50;49.00;;;;;9.40;44.22;101503.34;5060215;28;45894;-70
2022/03/09 02:41:05;;;;;;;;;61.00;50.00;;;;;9.31;44.20;101504.91;5063084;28;45371;-69
2022/03/09 02:43:31;;;;;;;;;71.00;50.50;;;;;9.13;44.47;101476.69;5064616;28;45271;-71
2022/03/09 02:45:56;;;;;;;;;69.25;52.50;;;;;9.18;44.09;101495.03;5042833;28;46016;-70
2022/03/09 02:48:22;;;;;;;;;66.75;50.75;;;;;9.12;44.24;101494.94;5061321;28;46377;-69
2022/03/09 02:50:54;;;;;;;;;68.00;50.25;;;;;9.11;44.13;101496.69;5056980;28;45917;-71
2022/03/09 02:53:20;;;;;;;;;67.00;51.25;;;;;9.06;44.82;101506.16;5037114;28;45478;-71
2022/03/09 02:55:45;;;;;;;;;67.25;51.25;;;;;9.02;44.77;101501.72;5048605;28;45504;-69
2022/03/09 02:58:11;;;;;;;;;67.50;51.00;;;;;8.99;44.93;101495.53;5038960;28;46074;-69
2022/03/09 03:00:36;;;;;;;;;68.50;51.00;;;;;8.91;44.49;101488.41;5058174;28;45465;-71
2022/03/09 03:03:02;;;;;;;;;65.75;50.50;;;;;9.05;44.75;101516.56;5059063;28;45458;-69
2022/03/09 03:05:28;;;;;;;;;67.75;50.00;;;;;9.07;45.18;101522.72;5063202;28;45428;-70
2022/03/09 03:07:53;;;;;;;;;67.25;49.50;;;;;8.80;45.09;101479.47;5059560;28;46133;-70
2022/03/09 03:10:19;;;;;;;;;63.00;49.25;;;;;9.01;45.79;101525.19;5056223;28;47123;-71
2022/03/09 03:12:45;;;;;;;;;60.50;47.00;;;;;9.01;45.81;101519.97;5056939;28;45561;-70
2022/03/09 03:15:10;;;;;;;;;63.00;50.25;;;;;8.88;45.67;101511.88;5057493;28;45825;-67
2022/03/09 03:17:37;;;;;;;;;66.25;49.50;;;;;8.96;45.77;101524.22;5056509;28;46550;-69
2022/03/09 03:20:04;;;;;;;;;66.50;51.00;;;;;8.81;45.85;101498.66;5038624;28;45387;-69
2022/03/09 03:22:29;;;;;;;;;66.00;50.50;;;;;8.80;45.57;101507.31;5056942;28;45375;-68
2022/03/09 03:24:55;;;;;;;;;64.50;50.00;;;;;8.76;45.82;101509.00;5057093;28;45375;-69
2022/03/09 03:27:20;;;;;;;;;69.33;52.67;;;;;8.62;45.80;101495.63;5056261;28;45934;-70
2022/03/09 03:29:46;;;;;;;;;71.33;53.00;;;;;8.65;46.14;101523.53;5038260;28;45446;-69
2022/03/09 03:32:12;;;;;;;;;71.33;56.00;;;;;8.49;46.81;101514.47;5056968;28;45424;-71
2022/03/09 03:34:38;;;;;;;;;71.00;55.33;;;;;8.40;46.87;101509.03;5056995;28;45414;-69
2022/03/09 03:37:04;;;;;;;;;67.33;51.33;;;;;8.41;46.21;101505.59;5056824;28;45496;-71
2022/03/09 03:39:30;;;;;;;;;75.00;59.33;;;;;8.17;46.59;101483.25;5055250;28;45339;-69
2022/03/09 03:41:55;;;;;;;;;70.33;53.00;;;;;8.31;46.64;101500.97;5055060;28;45336;-68
2022/03/09 03:44:21;;;;;;;;;68.33;52.67;;;;;8.36;46.44;101510.69;5056966;28;45708;-69
2022/03/09 03:46:47;;;;;;;;;67.00;53.00;;;;;8.28;46.95;101497.44;5056785;28;45484;-70
2022/03/09 03:49:12;;;;;;;;;73.33;52.67;;;;;8.35;46.86;101506.31;5056327;28;45303;-68
2022/03/09 03:51:38;;;;;;;;;71.67;53.00;;;;;8.34;46.80;101507.13;5056310;28;45421;-69
2022/03/09 03:54:03;;;;;;;;;70.33;53.00;;;;;8.33;47.24;101512.31;5056094;28;45555;-68
2022/03/09 03:56:29;;;;;;;;;74.33;56.67;;;;;8.31;46.72;101521.88;5055329;28;45592;-68
2022/03/09 03:58:55;;;;;;;;;75.00;59.00;;;;;8.28;46.96;101514.81;5056089;28;45240;-71
2022/03/09 04:01:20;;;;;;;;;72.00;53.33;;;;;8.23;47.25;101514.75;5056610;28;45350;-69
2022/03/09 04:03:47;;;;;;;;;69.67;51.67;;;;;8.19;47.46;101519.84;5056370;28;45592;-69
2022/03/09 04:06:12;;;;;;;;;73.33;56.00;;;;;8.13;47.58;101520.56;5056250;28;46128;-70
2022/03/09 04:08:38;;;;;;;;;74.67;55.67;;;;;8.11;47.07;101524.84;5055674;28;45497;-71
2022/03/09 04:11:04;;;;;;;;;75.00;55.67;;;;;8.07;47.77;101526.53;5037945;28;45437;-70
2022/03/09 04:13:30;;;;;;;;;76.33;62.33;;;;;7.58;47.34;101467.00;5055879;28;45713;-69
2022/03/09 04:15:56;;;;;;;;;77.00;59.67;;;;;7.81;47.53;101511.94;5055721;28;45472;-68
2022/03/09 04:18:21;;;;;;;;;77.00;61.00;;;;;7.73;48.33;101529.09;5055576;28;45776;-68
2022/03/09 04:20:47;;;;;;;;;76.67;60.67;;;;;7.63;48.09;101541.88;5055369;28;45402;-68
2022/03/09 04:23:12;;;;;;;;;69.33;53.00;;;;;7.65;48.44;101539.31;5059435;28;45430;-70
2022/03/09 04:25:42;;;;;;;;;71.00;55.00;;;;;7.54;48.32;101518.16;5054656;28;46190;-70
2022/03/09 04:28:07;;;;;;;;;70.67;53.67;;;;;7.63;48.43;101531.47;5037478;28;45473;-70
2022/03/09 04:30:33;;;;;;;;;71.67;56.00;;;;;7.61;48.48;101527.91;5037209;28;45330;-69
2022/03/09 04:32:59;;;;;;;;;71.33;57.67;;;;;7.57;48.42;101526.09;5055714;28;45695;-71
2022/03/09 04:35:24;;;;;;;;;71.67;53.00;;;;;7.50;49.00;101518.94;5057104;28;45345;-70
2022/03/09 04:37:50;;;;;;;;;73.33;57.00;;;;;7.46;49.52;101517.09;5055984;28;45727;-71
2022/03/09 04:40:19;;;;;;;;;69.00;52.67;;;;;7.48;49.55;101530.19;5055679;28;45426;-70
2022/03/09 04:42:44;;;;;;;;;69.67;55.33;;;;;7.47;49.78;101537.09;5057552;28;45701;-70
2022/03/09 04:45:10;;;;;;;;;71.33;55.00;;;;;7.41;50.08;101536.94;5058071;28;46135;-71
2022/03/09 04:47:36;;;;;;;;;73.33;56.67;;;;;7.31;50.37;101534.91;5055243;28;45573;-70
2022/03/09 04:50:03;;;;;;;;;73.33;56.67;;;;;7.22;50.15;101536.41;5056849;28;45418;-69
2022/03/09 04:52:28;;;;;;;;;70.67;53.67;;;;;7.25;50.47;101538.22;5059703;28;45453;-69
2022/03/09 04:55:00;;;;;;;;;74.00;53.67;;;;;7.12;50.67;101533.50;5054930;28;45389;-71
2022/03/09 04:57:26;;;;;;;;;71.00;55.00;;;;;7.21;50.81;101552.00;5055021;28;45460;-70
2022/03/09 04:59:52;;;;;;;;;68.33;52.00;;;;;7.09;51.10;101547.31;5055020;28;45420;-69
2022/03/09 05:02:17;;;;;;;;;70.33;55.33;;;;;7.08;51.45;101548.16;5055635;28;45930;-69
2022/03/09 05:04:43;;;;;;;;;67.00;53.33;;;;;7.04;52.04;101561.06;5055017;28;45512;-71
2022/03/09 05:07:08;;;;;;;;;70.67;53.00;;;;;6.99;52.02;101559.19;5058247;28;45484;-70
2022/03/09 05:09:34;;;;;;;;;67.67;51.33;;;;;7.01;52.17;101560.13;5058994;28;45398;-72
2022/03/09 05:12:01;;;;;;;;;69.33;53.33;;;;;6.86;52.37;101538.84;5059068;28;45473;-67
2022/03/09 05:14:27;;;;;;;;;70.00;52.33;;;;;6.87;52.63;101555.34;5056490;28;46107;-70
2022/03/09 05:16:56;;;;;;;;;71.00;53.00;;;;;6.90;52.56;101560.63;5036273;28;45402;-69
2022/03/09 05:19:21;;;;;;;;;72.00;54.00;;;;;6.86;52.48;101558.75;5054501;28;45407;-69
2022/03/09 05:21:53;;;;;;;;;68.67;52.33;;;;;6.78;53.59;101559.41;5058552;28;45299;-69
2022/03/09 05:24:19;;;;;;;;;68.33;52.00;;;;;6.71;53.14;101551.38;5058396;28;45712;-69
2022/03/09 05:26:46;;;;;;;;;68.33;51.00;;;;;6.83;53.57;101569.09;5055781;28;45740;-69
2022/03/09 05:29:15;;;;;;;;;64.67;50.67;;;;;6.85;53.46;101573.50;5053681;28;45355;-69
2022/03/09 05:31:41;;;;;;;;;61.33;48.67;;;;;6.76;53.74;101565.41;5057460;28;45468;-68
2022/03/09 05:34:07;;;;;;;;;64.33;51.00;;;;;6.77;53.80;101572.41;5057614;28;46015;-70
2022/03/09 05:36:33;;;;;;;;;63.00;48.00;;;;;6.78;53.65;101576.75;5057679;28;45593;-68
2022/03/09 05:38:59;;;;;;;;;68.33;51.33;;;;;6.79;53.77;101582.03;5051780;28;45750;-68
2022/03/09 05:41:25;;;;;;;;;68.33;51.33;;;;;6.77;54.23;101585.44;5054335;28;45385;-68
2022/03/09 05:43:52;;;;;;;;;66.33;51.33;;;;;6.75;54.21;101592.31;5054278;28;45639;-68
2022/03/09 05:46:18;;;;;;;;;63.00;47.00;;;;;6.75;53.79;101598.38;5052227;28;45315;-70
2022/03/09 05:48:43;;;;;;;;;65.67;50.00;;;;;6.71;53.23;101593.03;5034442;28;45396;-69
2022/03/09 05:51:10;;;;;;;;;67.00;48.67;;;;;6.72;53.57;101605.25;5038285;28;45440;-68
2022/03/09 05:53:35;;;;;;;;;67.00;50.67;;;;;6.54;53.71;101582.09;5042130;28;46735;-68
2022/03/09 05:56:01;;;;;;;;;62.00;47.00;;;;;6.63;53.92;101613.63;5032232;28;45624;-69
2022/03/09 05:58:26;;;;;;;;;60.00;46.67;;;;;6.66;53.97;101628.47;5055118;28;45799;-69
2022/03/09 06:00:52;;;;;;;;;63.00;50.00;;;;;6.61;54.19;101617.91;5052294;28;45390;-68
2022/03/09 06:03:18;;;;;;;;;56.00;44.33;;;;;6.58;53.87;101613.47;5056670;28;46117;-67
2022/03/09 06:05:43;;;;;;;;;60.00;47.00;;;;;6.69;53.81;101619.03;5038927;28;45282;-68
2022/03/09 06:08:09;;;;;;;;;62.50;47.00;;;;;6.74;53.45;101621.78;5053735;28;45449;-66
2022/03/09 06:10:34;;;;;;;;;61.00;48.00;;;;;6.74;53.94;101616.59;5053361;28;45395;-68
2022/03/09 06:13:01;;;;;;;;;58.25;46.75;;;;;6.77;53.54;101616.69;5053008;28;45487;-69
2022/03/09 06:15:27;;;;;;;;;63.67;48.67;;;;;6.72;54.19;101616.53;5052575;28;45507;-68
2022/03/09 06:17:53;;;;;;;;;66.33;51.33;;;;;6.62;54.49;101598.84;5052112;28;45552;-70
2022/03/09 06:20:21;;;;;;;;;60.67;48.00;;;;;6.60;54.51;101608.34;5053354;28;45438;-69
2022/03/09 06:22:47;;;;;;;;;62.67;48.33;;;;;6.73;54.53;101618.28;5054603;28;45381;-71
2022/03/09 06:25:14;;;;;;;;;62.33;46.33;;;;;6.67;53.75;101604.19;5056457;28;45519;-69
2022/03/09 06:27:44;;;;;;;;;57.67;44.67;;;;;6.85;54.62;101615.19;5053905;28;45461;-69
2022/03/09 06:30:10;;;;;;;;;61.33;46.00;;;;;6.83;54.16;101611.63;5052950;28;45519;-68
2022/03/09 06:32:37;;;;;;;;;62.00;43.67;;;;;6.74;54.89;101613.97;5052997;28;46312;-68
2022/03/09 06:35:04;;;;;;;;;59.33;47.67;;;;;6.72;54.96;101623.47;5034870;28;45866;-69
2022/03/09 06:37:54;;;;;;;;;64.00;48.00;;;;;6.51;54.88;101593.28;5053262;28;45492;-69
2022/03/09 06:40:22;;;;;;;;;65.00;48.67;;;;;6.69;54.78;101621.66;5053656;28;45456;-69
2022/03/09 06:42:48;;;;;;;;;63.33;48.33;;;;;6.74;55.61;101635.69;5051184;28;47421;-68
2022/03/09 06:45:13;;;;;;;;;60.00;48.00;;;;;6.73;55.60;101640.84;5053245;28;45606;-68
2022/03/09 06:47:39;;;;;;;;;62.00;47.00;;;;;6.70;55.67;101635.53;5037279;28;45322;-68
2022/03/09 06:50:09;;;;;;;;;63.00;48.67;;;;;6.73;55.47;101633.91;5051122;28;45831;-70
2022/03/09 06:52:35;;;;;;;;;64.00;49.00;;;;;6.75;56.18;101637.44;5052909;28;45709;-68
2022/03/09 06:55:04;;;;;;;;;58.00;46.00;;;;;6.58;55.84;101616.06;5055104;28;45490;-70
2022/03/09 06:57:32;;;;;;;;;64.33;48.67;;;;;6.77;55.81;101645.31;5035586;28;45489;-69
2022/03/09 06:59:59;;;;;;;;;63.67;49.00;;;;;6.72;55.79;101620.84;5053558;28;45483;-70
2022/03/09 07:02:24;;;;;;;;;57.33;46.33;;;;;6.77;55.57;101621.88;5052468;28;46234;-69
2022/03/09 07:04:50;;;;;;;;;59.00;44.67;;;;;6.93;55.11;101641.50;5052334;28;45402;-69
2022/03/09 07:07:15;;;;;;;;;57.00;46.67;;;;;6.80;55.66;101615.03;5052841;28;45513;-69
2022/03/09 07:09:41;;;;;;;;;60.33;46.67;;;;;6.88;56.17;101627.41;5054026;28;45492;-69
2022/03/09 07:12:07;;;;;;;;;62.00;46.00;;;;;6.99;55.75;101642.53;5054013;28;46115;-69
2022/03/09 07:14:33;;;;;;;;;61.67;46.33;;;;;6.94;56.13;101625.88;5058108;28;45532;-69
2022/03/09 07:16:58;;;;;;;;;62.33;48.00;;;;;7.20;55.75;101659.69;5059950;28;45343;-68
2022/03/09 07:19:33;;;;;;;;;54.33;44.67;;;;;7.19;56.02;101660.53;5061045;28;45383;-69
2022/03/09 07:21:59;;;;;;;;;61.00;46.25;;;;;7.19;55.73;101663.13;5046205;28;46976;-69
2022/03/09 07:24:24;;;;;;;;;61.33;45.33;;;;;7.20;56.37;101662.28;5060819;28;45481;-68
2022/03/09 07:26:50;;;;;;;;;57.50;45.50;;;;;7.27;56.05;101661.63;5060909;28;45465;-69
2022/03/09 07:29:17;;;;;;;;;61.75;43.00;;;;;7.34;56.41;101660.97;5060798;28;45474;-69
2022/03/09 07:31:42;;;;;;;;;56.75;42.00;;;;;7.49;56.14;101676.19;5061038;28;45363;-69
2022/03/09 07:34:08;;;;;;;;;56.67;44.67;;;;;7.55;56.49;101670.28;5058013;28;45521;-68
2022/03/09 07:36:34;;;;;;;;;52.75;40.00;;;;;7.61;56.65;101683.47;5056194;28;45260;-68
2022/03/09 07:39:00;;;;;;;;;53.25;42.75;;;;;7.64;56.50;101681.84;5056420;28;45504;-68
2022/03/09 07:41:26;;;;;;;;;61.25;47.00;;;;;7.59;56.63;101660.00;5056459;28;46040;-69
2022/03/09 07:43:51;;;;;;;;;58.50;46.75;;;;;7.77;56.39;101675.25;5059686;28;45405;-70
2022/03/09 07:46:25;;;;;;;;;58.25;45.00;;;;;7.77;55.90;101669.16;5055781;28;45468;-69
2022/03/09 07:48:51;;;;;;;;;58.00;44.00;;;;;7.87;56.45;101676.41;5037975;28;45480;-71
2022/03/09 07:51:16;;;;;;;;;59.50;44.75;;;;;7.91;56.78;101677.38;5059179;28;46082;-69
2022/03/09 07:53:43;;;;;;;;;55.50;43.75;;;;;7.89;57.21;101673.84;5059857;28;45292;-67
2022/03/09 07:56:13;;;;;;;;;54.00;42.00;;;;;8.02;57.35;101686.38;5060432;28;45437;-69
2022/03/09 07:58:51;;;;;;;;;54.25;40.75;;;;;8.05;57.25;101686.47;5059920;28;45399;-68
2022/03/09 08:01:17;;;;;;;;;55.75;44.25;;;;;8.07;57.10;101688.28;5056151;28;46338;-69
2022/03/09 08:03:44;;;;;;;;;53.50;42.00;;;;;8.15;57.25;101691.09;5057271;28;45501;-70
2022/03/09 08:06:10;;;;;;;;;53.00;42.00;;;;;8.11;57.41;101681.41;5056884;28;45468;-70
2022/03/09 08:08:35;;;;;;;;;59.75;43.75;;;;;8.21;57.05;101692.97;5037570;28;45474;-68
2022/03/09 08:11:09;;;;;;;;;56.75;43.75;;;;;8.13;56.98;101673.63;5056332;28;45641;-69
2022/03/09 08:13:44;;;;;;;;;49.75;38.50;;;;;8.35;57.98;101709.91;5038427;28;45244;-68
2022/03/09 08:16:10;;;;;;;;;50.00;40.00;;;;;7.90;57.83;101615.59;5056964;28;45488;-69
2022/03/09 08:18:46;;;;;;;;;53.75;42.00;;;;;8.26;58.41;101673.13;5055603;28;45508;-68
2022/03/09 08:21:21;;;;;;;;;49.00;39.00;;;;;7.97;59.32;101617.53;5041482;28;45432;-71
2022/03/09 08:23:47;;;;;;;;;50.25;40.50;;;;;8.41;59.54;101701.38;5055760;28;45505;-70
2022/03/09 08:26:15;;;;;;;;;49.25;39.75;;;;;8.36;60.03;101697.75;5057827;28;45338;-69
2022/03/09 08:28:42;;;;;;;;;46.75;36.50;;;;;8.39;60.61;101710.88;5057075;28;45481;-70
2022/03/09 08:31:08;;;;;;;;;46.50;38.50;;;;;8.35;61.12;101711.63;5054730;28;46508;-68
2022/03/09 08:33:39;;;;;;;;;45.50;38.25;;;;;8.12;61.04;101670.16;5037000;28;45629;-67
2022/03/09 08:36:05;;;;;;;;;41.50;34.00;;;;;8.40;60.90;101695.28;5054636;28;45652;-69
2022/03/09 08:38:31;;;;;;;;;44.25;34.50;;;;;8.55;60.64;101710.47;5036836;28;45807;-71
2022/03/09 08:40:57;;;;;;;;;39.25;33.00;;;;;8.46;60.86;101682.38;5042585;28;45669;-68
2022/03/09 08:43:22;;;;;;;;;46.75;37.75;;;;;8.71;60.71;101716.97;5055042;28;45871;-71
2022/03/09 08:45:48;;;;;;;;;45.75;37.25;;;;;8.65;61.03;101706.34;5040331;28;45410;-68
2022/03/09 08:48:14;;;;;;;;;42.00;36.25;;;;;8.60;61.17;101692.31;5036029;28;45905;-66
2022/03/09 08:50:39;;;;;;;;;39.75;34.00;;;;;8.65;61.65;101704.63;5054729;28;45960;-68
2022/03/09 08:53:05;;;;;;;;;47.00;34.75;;;;;8.75;61.88;101710.94;5055732;28;45306;-68
2022/03/09 08:55:36;;;;;;;;;38.50;34.00;;;;;8.53;61.88;101664.28;5036155;28;45519;-68
2022/03/09 08:58:03;;;;;;;;;34.75;31.00;;;;;8.84;62.07;101713.81;5021331;28;45512;-68
2022/03/09 09:00:28;;;;;;;;;42.00;33.00;;;;;8.84;61.81;101711.19;5054668;28;45850;-69
2022/03/09 09:02:55;;;;;;;;;36.00;30.75;;;;;8.84;62.11;101713.81;5054479;28;45485;-68
2022/03/09 09:05:22;;;;;;;;;34.25;30.50;;;;;8.93;62.18;101707.94;5055217;28;45264;-68
2022/03/09 09:07:48;;;;;;;;;34.25;31.00;;;;;8.96;61.79;101691.44;5034565;28;45600;-68
2022/03/09 09:10:14;;;;;;;;;32.50;29.50;;;;;9.15;61.94;101711.94;5034901;28;45752;-67
2022/03/09 09:12:40;;;;;;;;;38.75;30.25;;;;;9.22;61.84;101712.97;5034538;28;45794;-68
2022/03/09 09:15:07;;;;;;;;;32.00;30.00;;;;;9.17;61.92;101706.75;5038214;28;45454;-67
2022/03/09 09:17:33;;;;;;;;;34.50;30.50;;;;;9.09;62.21;101688.28;5034611;28;45648;-68
2022/03/09 09:19:59;;;;;;;;;31.50;30.00;;;;;9.19;62.68;101710.28;5036560;28;45476;-68
2022/03/09 09:22:25;;;;;;;;;40.25;30.00;;;;;9.23;62.53;101705.16;5038983;28;45343;-68
2022/03/09 09:24:52;;;;;;;;;30.50;28.75;;;;;9.23;62.81;101699.03;5036436;28;45260;-68
2022/03/09 09:27:18;;;;;;;;;29.25;26.00;;;;;9.31;62.42;101700.97;5043654;28;45884;-68
2022/03/09 09:29:44;;;;;;;;;30.75;27.00;;;;;9.40;62.32;101683.75;5057358;28;46165;-68
2022/03/09 09:32:09;;;;;;;;;33.25;25.00;;;;;9.54;61.78;101698.00;5053620;28;45497;-67
2022/03/09 09:34:35;;;;;;;;;37.25;30.00;;;;;9.66;62.03;101686.91;5053815;28;45410;-70
2022/03/09 09:37:02;;;;;;;;;72.00;54.67;;;;;9.84;61.54;101699.47;5034938;28;45468;-68
2022/03/09 09:39:28;;;;;;;;;68.33;53.00;;;;;9.99;61.62;101684.09;5053774;28;45461;-70
2022/03/09 09:41:54;;;;;;;;;43.00;34.00;;;;;10.26;60.99;101691.59;5034532;28;45547;-68
2022/03/09 09:44:23;;;;;;;;;27.75;26.50;;;;;10.40;60.71;101669.19;5052120;28;45352;-69
2022/03/09 09:47:01;;;;;;;;;32.00;27.00;;;;;10.54;60.25;101648.47;5038871;28;45558;-70
2022/03/09 09:49:27;;;;;;;;;30.25;25.00;;;;;10.93;59.80;101676.16;5035148;28;47694;-69
2022/03/09 09:51:54;;;;;;;;;26.75;23.75;;;;;10.89;59.13;101628.91;5052460;28;45837;-69
2022/03/09 09:54:31;;;;;;;;;30.25;25.25;;;;;11.12;58.65;101617.00;5036114;28;45645;-70
2022/03/09 09:56:57;;;;;;;;;24.75;23.50;;;;;11.46;57.98;101633.22;5036015;28;45485;-69
2022/03/09 09:59:23;;;;;;;;;25.25;21.50;;;;;11.84;57.72;101659.94;5053710;28;45674;-70
2022/03/09 10:01:49;;;;;;;;;18.50;18.50;;;;;12.20;56.81;101670.84;5053635;28;45500;-69
2022/03/09 10:04:15;;;;;;;;;25.75;19.50;;;;;12.49;55.68;101660.59;5037727;28;45509;-69
2022/03/09 10:06:41;;;;;;;;;22.25;21.50;;;;;12.75;55.68;101666.09;5054448;28;45488;-70
2022/03/09 10:09:11;;;;;;;;;23.25;19.50;;;;;12.59;54.84;101591.47;5051369;28;45682;-70
2022/03/09 10:11:52;;;;;;;;;24.00;20.75;;;;;13.16;54.63;101671.63;5047483;28;45455;-70
2022/03/09 10:14:49;;;;;;;;;15.50;15.50;;;;;13.22;53.65;101654.13;5053340;28;45966;-69
2022/03/09 10:17:28;;;;;;;;;23.50;19.25;;;;;13.25;53.37;101673.44;5050826;28;45571;-70
2022/03/09 10:20:06;;;;;;;;;21.50;18.00;;;;;13.16;53.38;101655.84;5034902;28;45659;-68
2022/03/09 10:22:41;;;;;;;;;32.75;28.50;;;;;13.29;53.28;101656.84;5053404;28;45835;-68
2022/03/09 10:25:09;;;;;;;;;29.00;27.25;;;;;13.53;52.78;101658.72;5042651;28;45398;-69
2022/03/09 10:27:50;;;;;;;;;23.75;17.75;;;;;13.69;52.54;101624.53;5052494;28;45516;-68
2022/03/09 10:30:16;;;;;;;;;17.25;15.75;;;;;14.22;51.86;101650.13;5034277;28;46196;-70
2022/03/09 10:32:49;;;;;;;;;18.25;15.25;;;;;14.39;50.74;101652.78;5052507;28;45485;-69
2022/03/09 10:35:17;;;;;;;;;18.00;13.25;;;;;14.44;50.02;101651.03;5050455;28;45678;-69
2022/03/09 10:37:47;;;;;;;;;15.00;12.50;;;;;14.60;49.94;101644.06;5034278;28;45461;-70
2022/03/09 10:40:26;;;;;;;;;15.25;14.50;;;;;14.86;49.49;101612.38;5052311;28;45696;-75
2022/03/09 10:43:08;;;;;;;;;13.75;13.50;;;;;15.72;47.83;101641.16;5034318;28;46079;-70
2022/03/09 10:45:33;;;;;;;;;16.00;14.00;;;;;17.26;44.74;101618.78;5052884;28;45670;-70
2022/03/09 10:48:00;;;;;;;;;14.00;13.00;;;;;19.35;40.67;101627.00;5056470;28;45784;-69
2022/03/09 10:50:28;;;;;;;;;18.25;14.00;;;;;20.93;37.95;101619.81;5056662;28;45501;-69
2022/03/09 10:53:00;;;;;;;;;15.33;13.33;;;;;22.17;35.25;101626.81;5056231;28;46252;-74
2022/03/09 10:55:31;;;;;;;;;13.00;13.00;;;;;22.99;33.58;101597.38;5056386;28;45514;-73
2022/03/09 10:58:11;;;;;;;;;16.67;12.67;;;;;23.59;32.30;101568.44;5055821;28;45463;-69
2022/03/09 11:00:57;;;;;;;;;12.33;12.33;;;;;22.17;33.50;101626.81;5055504;28;46140;-68
2022/03/09 11:03:25;;;;;;;;;11.67;10.00;;;;;21.08;35.81;101619.38;5058748;28;45342;-71
2022/03/09 11:05:57;;;;;;;;;12.67;10.33;;;;;22.09;34.45;101617.28;5059934;28;45219;-72
2022/03/09 11:08:29;;;;;;;;;16.33;13.00;;;;;23.21;33.17;101626.91;5056656;28;45425;-69
2022/03/09 11:10:58;;;;;;;;;12.00;10.33;;;;;23.87;31.85;101614.59;5055967;28;46059;-70
2022/03/09 11:13:28;;;;;;;;;11.67;10.00;;;;;24.10;32.03;101615.44;5056516;28;45906;-73
2022/03/09 11:15:55;;;;;;;;;14.33;12.33;;;;;24.24;31.93;101605.03;5059721;28;45596;-73
2022/03/09 11:18:24;;;;;;;;;12.67;9.33;;;;;24.60;31.06;101619.66;5061069;28;45337;-74
2022/03/09 11:20:56;;;;;;;;;8.67;8.67;;;;;24.77;31.07;101611.75;5059727;28;46015;-74